Time;durP1;ratioP1;P1;durP2;ratioP2;P2;SDS_P1;SDS_P2;PMS_P1;PMS_P2;Temp;Humidity;BMP_temperature;BMP_pressure;BME280_temperature;BME280_humidity;BME280_pressure;Samples;Min_cycle;Max_cycle;Signal;HPM_P1;HPM_P2
2023/04/26 00:01:07;;;;;;;14.90;3.72;;;20.40;99.90;;;;;;5065706;28;20230;-77
2023/04/26 00:03:39;;;;;;;19.38;4.45;;;20.50;99.90;;;;;;5067325;28;20195;-75
2023/04/26 00:06:12;;;;;;;13.60;4.40;;;20.60;99.90;;;;;;5067737;28;20199;-74
2023/04/26 00:08:44;;;;;;;19.90;5.30;;;20.70;99.90;;;;;;5050093;28;20227;-75
2023/04/26 00:11:19;;;;;;;12.70;3.63;;;20.80;99.90;;;;;;5064513;28;20207;-75
2023/04/26 00:13:50;;;;;;;18.10;4.53;;;21.00;99.90;;;;;;5069917;28;20413;-75
2023/04/26 00:16:21;;;;;;;13.05;4.18;;;21.10;99.90;;;;;;5066534;28;20716;-75
2023/04/26 00:18:53;;;;;;;14.55;4.07;;;21.10;99.90;;;;;;5073989;28;20220;-76
2023/04/26 00:21:24;;;;;;;17.20;4.20;;;21.20;99.90;;;;;;5073699;28;20246;-75
2023/04/26 00:23:55;;;;;;;12.98;3.40;;;21.30;99.90;;;;;;5072837;28;20200;-75
2023/04/26 00:26:28;;;;;;;11.90;3.60;;;21.40;99.90;;;;;;5070812;28;20223;-75
2023/04/26 00:28:59;;;;;;;15.93;3.80;;;21.60;99.90;;;;;;5070723;28;20690;-75
2023/04/26 00:31:30;;;;;;;16.13;4.03;;;21.60;99.90;;;;;;5069544;28;20216;-76
2023/04/26 00:34:03;;;;;;;16.05;3.80;;;21.70;99.90;;;;;;5073435;28;20198;-74
2023/04/26 00:36:35;;;;;;;11.18;3.35;;;21.80;99.90;;;;;;5070801;28;20207;-74
2023/04/26 00:39:06;;;;;;;15.98;4.18;;;21.90;99.90;;;;;;5070648;28;20231;-75
2023/04/26 00:41:39;;;;;;;17.65;4.07;;;21.90;99.90;;;;;;5071075;28;20188;-74
2023/04/26 00:44:10;;;;;;;13.32;3.60;;;21.80;99.90;;;;;;5072833;28;20222;-74
2023/04/26 00:46:44;;;;;;;11.35;4.00;;;21.80;99.90;;;;;;5070212;28;20283;-75
2023/04/26 00:49:18;;;;;;;13.95;3.25;;;21.80;99.90;;;;;;5071326;28;20200;-75
2023/04/26 00:51:50;;;;;;;11.45;3.47;;;21.80;99.90;;;;;;5072698;28;20192;-75
2023/04/26 00:54:23;;;;;;;13.00;3.60;;;21.90;99.90;;;;;;5071584;28;20188;-75
2023/04/26 00:56:56;;;;;;;11.60;3.40;;;22.00;99.90;;;;;;5071942;28;20205;-76
2023/04/26 00:59:28;;;;;;;9.77;2.80;;;22.10;99.90;;;;;;5071563;28;20227;-75
2023/04/26 01:01:59;;;;;;;12.70;2.92;;;22.10;99.90;;;;;;5071758;28;20211;-75
2023/04/26 01:04:30;;;;;;;6.15;1.95;;;22.00;99.90;;;;;;5072774;28;20215;-74
2023/04/26 01:07:02;;;;;;;13.10;2.58;;;22.10;99.90;;;;;;5068868;28;20203;-75
2023/04/26 01:09:35;;;;;;;7.03;2.15;;;22.10;99.90;;;;;;5070444;28;20211;-76
2023/04/26 01:12:10;;;;;;;8.65;2.58;;;22.20;99.90;;;;;;5070151;28;20196;-75
2023/04/26 01:14:42;;;;;;;9.68;2.50;;;22.20;99.90;;;;;;5069041;28;20304;-76
2023/04/26 01:17:13;;;;;;;6.60;2.20;;;22.20;99.90;;;;;;5068511;28;20192;-75
2023/04/26 01:19:50;;;;;;;7.97;2.00;;;22.30;99.90;;;;;;5069219;28;20888;-75
2023/04/26 01:22:22;;;;;;;6.05;2.10;;;22.30;99.90;;;;;;5069701;28;20215;-74
2023/04/26 01:24:58;;;;;;;13.70;2.67;;;22.30;99.90;;;;;;5071348;28;20258;-75
2023/04/26 01:27:29;;;;;;;8.00;1.92;;;22.40;99.90;;;;;;5069482;28;20199;-75
2023/04/26 01:30:00;;;;;;;8.38;2.20;;;22.30;99.90;;;;;;5069681;28;20207;-75
2023/04/26 01:32:34;;;;;;;7.90;2.05;;;22.30;99.90;;;;;;5051733;28;20200;-75
2023/04/26 01:35:06;;;;;;;6.90;2.50;;;22.30;99.90;;;;;;5070481;28;20805;-75
2023/04/26 01:37:37;;;;;;;7.65;2.08;;;22.20;99.90;;;;;;5069588;28;20709;-75
2023/04/26 01:40:11;;;;;;;9.25;2.22;;;22.20;99.90;;;;;;5069198;28;20579;-74
2023/04/26 01:42:42;;;;;;;7.97;1.90;;;22.30;99.90;;;;;;5068766;28;20212;-74
2023/04/26 01:45:14;;;;;;;8.27;2.15;;;22.30;99.90;;;;;;5069322;28;20212;-76
2023/04/26 01:47:45;;;;;;;8.73;2.28;;;22.30;99.90;;;;;;5072180;28;20196;-76
2023/04/26 01:50:16;;;;;;;12.55;2.20;;;22.30;99.90;;;;;;5071913;28;20234;-75
2023/04/26 01:52:47;;;;;;;7.45;1.90;;;22.30;99.90;;;;;;5072257;28;20605;-75
2023/04/26 01:55:20;;;;;;;5.43;1.95;;;22.30;99.90;;;;;;5071695;28;20786;-75
2023/04/26 01:57:51;;;;;;;7.53;2.22;;;22.20;99.90;;;;;;5071883;28;20204;-76
2023/04/26 02:00:22;;;;;;;8.48;2.03;;;22.20;99.90;;;;;;5070307;28;20231;-76
2023/04/26 02:02:56;;;;;;;8.45;2.45;;;22.20;99.90;;;;;;5071900;28;20192;-76
2023/04/26 02:05:27;;;;;;;8.23;1.73;;;22.20;99.90;;;;;;5071722;28;20195;-75
2023/04/26 02:07:59;;;;;;;6.80;2.03;;;22.20;99.90;;;;;;5072186;28;20200;-75
2023/04/26 02:10:32;;;;;;;6.43;1.85;;;22.20;99.90;;;;;;5071809;28;20203;-75
2023/04/26 02:13:03;;;;;;;10.02;2.17;;;22.20;99.90;;;;;;5072017;28;20196;-76
2023/04/26 02:15:34;;;;;;;11.02;2.10;;;22.10;99.90;;;;;;5071310;28;20279;-76
2023/04/26 02:18:05;;;;;;;10.13;2.00;;;22.10;99.90;;;;;;5071881;28;20287;-76
2023/04/26 02:20:37;;;;;;;8.07;2.00;;;22.00;99.90;;;;;;5072129;28;20196;-76
2023/04/26 02:23:08;;;;;;;9.80;2.03;;;21.90;99.90;;;;;;5072024;28;20203;-76
2023/04/26 02:25:41;;;;;;;7.47;2.13;;;21.90;99.90;;;;;;5072050;28;20207;-76
2023/04/26 02:28:12;;;;;;;7.80;1.73;;;21.70;99.90;;;;;;5067901;28;20560;-75
2023/04/26 02:30:43;;;;;;;10.00;1.90;;;21.60;99.90;;;;;;5070468;28;20200;-75
2023/04/26 02:33:14;;;;;;;9.57;2.13;;;21.60;99.90;;;;;;5077647;28;20199;-75
2023/04/26 02:35:49;;;;;;;9.63;1.88;;;21.50;99.90;;;;;;5091450;28;20195;-76
2023/04/26 02:38:22;;;;;;;7.85;1.83;;;21.50;99.90;;;;;;5089599;28;20194;-75
2023/04/26 02:41:01;;;;;;;7.63;1.90;;;21.70;99.90;;;;;;5067672;28;20203;-75
2023/04/26 02:43:32;;;;;;;11.27;2.42;;;21.70;99.90;;;;;;5071458;28;20196;-75
2023/04/26 02:46:03;;;;;;;8.23;1.80;;;21.80;99.90;;;;;;5071120;28;20655;-75
2023/04/26 02:48:35;;;;;;;5.68;1.50;;;21.80;99.90;;;;;;5072283;28;20223;-76
2023/04/26 02:51:06;;;;;;;5.07;1.70;;;21.80;99.90;;;;;;5073487;28;20206;-76
2023/04/26 02:53:37;;;;;;;5.60;1.50;;;21.80;99.90;;;;;;5071983;28;20211;-74
2023/04/26 02:56:10;;;;;;;4.63;1.30;;;21.80;99.90;;;;;;5071602;28;20196;-75
2023/04/26 02:58:43;;;;;;;6.63;1.70;;;21.80;99.90;;;;;;5068281;28;20215;-74
2023/04/26 03:01:15;;;;;;;4.80;1.15;;;21.90;99.90;;;;;;5070118;28;20346;-77
2023/04/26 03:03:46;;;;;;;4.40;1.27;;;21.90;99.90;;;;;;5070710;28;20290;-76
2023/04/26 03:06:17;;;;;;;4.70;1.40;;;21.90;99.90;;;;;;5067872;28;20212;-75
2023/04/26 03:08:48;;;;;;;7.20;1.70;;;22.00;99.90;;;;;;5068848;28;20200;-75
2023/04/26 03:11:21;;;;;;;5.80;1.40;;;22.00;99.90;;;;;;5065866;28;20204;-76
2023/04/26 03:13:52;;;;;;;6.97;1.58;;;22.00;99.90;;;;;;5069466;28;20211;-77
2023/04/26 03:16:24;;;;;;;3.17;1.40;;;22.10;99.90;;;;;;5069861;28;20200;-75
2023/04/26 03:18:55;;;;;;;6.75;1.73;;;22.00;99.90;;;;;;5070624;28;20216;-76
2023/04/26 03:21:26;;;;;;;7.20;1.67;;;22.00;99.90;;;;;;5070778;28;20195;-76
2023/04/26 03:23:59;;;;;;;5.65;1.27;;;22.00;99.90;;;;;;5074214;28;20237;-76
2023/04/26 03:26:32;;;;;;;5.90;1.50;;;22.00;99.90;;;;;;5084260;28;20241;-76
2023/04/26 03:29:03;;;;;;;6.10;1.55;;;22.00;99.90;;;;;;5070282;28;20199;-76
2023/04/26 03:31:34;;;;;;;5.70;1.45;;;22.10;99.90;;;;;;5069759;28;20704;-75
2023/04/26 03:34:06;;;;;;;10.23;1.90;;;22.10;99.90;;;;;;5070608;28;20219;-76
2023/04/26 03:36:37;;;;;;;5.63;1.50;;;22.10;99.90;;;;;;5068650;28;20212;-75
2023/04/26 03:39:09;;;;;;;9.77;1.80;;;22.20;99.90;;;;;;5070853;28;20224;-75
2023/04/26 03:41:42;;;;;;;5.00;1.63;;;22.10;99.90;;;;;;5075144;28;20212;-76
2023/04/26 03:44:13;;;;;;;6.63;1.70;;;22.10;99.90;;;;;;5070699;28;20196;-75
2023/04/26 03:46:45;;;;;;;6.38;1.42;;;22.20;99.90;;;;;;5069548;28;20309;-75
2023/04/26 03:49:18;;;;;;;5.47;1.90;;;22.30;99.90;;;;;;5067434;28;20234;-76
2023/04/26 03:51:49;;;;;;;5.22;1.40;;;22.20;99.90;;;;;;5067860;28;20208;-76
2023/04/26 03:54:20;;;;;;;7.75;1.52;;;22.20;99.90;;;;;;5072979;28;20191;-76
2023/04/26 03:56:53;;;;;;;5.35;1.55;;;22.20;99.90;;;;;;5071699;28;20612;-75
2023/04/26 03:59:26;;;;;;;5.43;1.42;;;22.30;99.90;;;;;;5073443;28;20216;-76
2023/04/26 04:01:57;;;;;;;7.50;1.88;;;22.20;99.90;;;;;;5072669;28;20196;-75
2023/04/26 04:04:28;;;;;;;3.72;1.40;;;22.30;99.90;;;;;;5077435;28;20226;-75
2023/04/26 04:06:59;;;;;;;3.50;1.10;;;22.30;99.90;;;;;;5076371;28;20204;-76
2023/04/26 04:09:30;;;;;;;6.38;1.58;;;22.30;99.90;;;;;;5073518;28;20203;-75
2023/04/26 04:12:05;;;;;;;4.50;1.20;;;22.20;99.90;;;;;;5077391;28;20643;-77
2023/04/26 04:14:36;;;;;;;4.57;1.20;;;22.20;99.90;;;;;;5065865;28;20245;-76
2023/04/26 04:17:07;;;;;;;6.45;1.63;;;22.10;99.90;;;;;;5059148;28;20208;-76
2023/04/26 04:19:38;;;;;;;6.05;1.50;;;22.20;99.90;;;;;;5072505;28;20230;-75
2023/04/26 04:22:09;;;;;;;5.20;1.38;;;22.30;99.90;;;;;;5063583;28;20215;-77
2023/04/26 04:24:41;;;;;;;4.07;1.13;;;22.40;99.90;;;;;;5054890;28;20223;-76
2023/04/26 04:27:15;;;;;;;5.63;1.27;;;22.40;99.90;;;;;;5056982;28;20698;-76
2023/04/26 04:29:46;;;;;;;4.80;1.17;;;22.50;99.90;;;;;;5076677;28;20565;-76
2023/04/26 04:32:17;;;;;;;4.20;1.25;;;22.60;99.90;;;;;;5075591;28;20569;-76
2023/04/26 04:34:48;;;;;;;4.05;1.02;;;22.50;99.90;;;;;;5075638;28;20200;-77
2023/04/26 04:37:20;;;;;;;5.25;1.05;;;22.50;99.90;;;;;;5076376;28;20207;-77
2023/04/26 04:39:51;;;;;;;7.65;1.13;;;22.50;99.90;;;;;;5076323;28;20220;-77
2023/04/26 04:42:26;;;;;;;7.07;1.40;;;22.40;99.90;;;;;;5075825;28;20212;-76
2023/04/26 04:44:58;;;;;;;5.55;1.30;;;22.50;99.90;;;;;;5072837;28;20808;-77
2023/04/26 04:47:29;;;;;;;4.72;1.20;;;22.50;99.90;;;;;;5075794;28;20200;-77
2023/04/26 04:50:02;;;;;;;6.13;1.35;;;22.60;99.90;;;;;;5076079;28;20207;-76
2023/04/26 04:52:34;;;;;;;6.50;1.70;;;22.60;99.90;;;;;;5067942;28;20214;-76
2023/04/26 04:55:05;;;;;;;5.50;1.27;;;22.60;99.90;;;;;;5063915;28;20196;-76
2023/04/26 04:57:38;;;;;;;5.15;1.60;;;22.60;99.90;;;;;;5071141;28;20227;-76
2023/04/26 05:00:11;;;;;;;7.45;1.40;;;22.70;99.90;;;;;;5060308;28;20235;-75
2023/04/26 05:02:42;;;;;;;6.43;1.30;;;22.80;99.90;;;;;;5069463;28;20219;-75
2023/04/26 05:05:14;;;;;;;6.43;1.55;;;22.80;99.90;;;;;;5074082;28;20211;-76
2023/04/26 05:07:45;;;;;;;7.65;1.33;;;22.80;99.90;;;;;;5072847;28;20283;-77
2023/04/26 05:10:18;;;;;;;5.38;1.40;;;22.70;99.90;;;;;;5073354;28;20226;-78
2023/04/26 05:12:54;;;;;;;5.55;1.60;;;22.70;99.90;;;;;;5072889;28;20212;-77
2023/04/26 05:15:25;;;;;;;4.28;1.38;;;22.70;99.90;;;;;;5072221;28;20191;-76
2023/04/26 05:17:58;;;;;;;4.97;1.35;;;22.70;99.90;;;;;;5071804;28;20763;-76
2023/04/26 05:20:29;;;;;;;6.28;1.45;;;22.80;99.90;;;;;;5075407;28;20273;-76
2023/04/26 05:23:00;;;;;;;5.03;1.30;;;22.80;99.90;;;;;;5064944;28;20202;-76
2023/04/26 05:25:31;;;;;;;4.82;1.20;;;22.80;99.90;;;;;;5073076;28;20200;-76
2023/04/26 05:28:05;;;;;;;4.40;1.38;;;22.90;99.90;;;;;;5074370;28;20219;-76
2023/04/26 05:30:36;;;;;;;6.25;1.73;;;22.80;99.90;;;;;;5064805;28;20192;-75
2023/04/26 05:33:07;;;;;;;5.00;1.30;;;22.90;99.90;;;;;;5066799;28;20203;-76
2023/04/26 05:35:38;;;;;;;7.75;1.50;;;22.90;99.90;;;;;;5073690;28;20552;-76
2023/04/26 05:38:09;;;;;;;6.85;1.20;;;22.90;99.90;;;;;;5071203;28;20578;-76
2023/04/26 05:40:41;;;;;;;4.72;1.10;;;22.90;99.90;;;;;;5082170;28;20238;-76
2023/04/26 05:43:13;;;;;;;6.55;1.25;;;22.90;99.90;;;;;;5089568;28;20204;-75
2023/04/26 05:45:53;;;;;;;5.80;1.20;;;22.90;99.90;;;;;;5066521;28;20192;-75
2023/04/26 05:48:25;;;;;;;5.63;1.35;;;22.90;99.90;;;;;;5060061;28;20196;-77
2023/04/26 05:50:56;;;;;;;5.80;1.23;;;22.90;99.90;;;;;;5071194;28;20655;-76
2023/04/26 05:53:27;;;;;;;5.65;1.40;;;22.90;99.90;;;;;;5053015;28;20196;-76
2023/04/26 05:55:58;;;;;;;8.13;1.17;;;22.80;99.90;;;;;;5084918;28;20196;-75
2023/04/26 05:58:32;;;;;;;8.07;1.50;;;22.90;99.90;;;;;;5074989;28;20227;-77
2023/04/26 06:01:03;;;;;;;6.90;1.30;;;22.90;99.90;;;;;;5069906;28;20319;-75
2023/04/26 06:03:34;;;;;;;6.40;1.38;;;22.90;99.90;;;;;;5070141;28;20196;-76
2023/04/26 06:06:06;;;;;;;3.72;1.08;;;22.90;99.90;;;;;;5070630;28;20192;-76
2023/04/26 06:08:37;;;;;;;5.90;1.38;;;23.00;99.90;;;;;;5071874;28;20200;-75
2023/04/26 06:11:08;;;;;;;5.30;1.20;;;23.00;99.90;;;;;;5071712;28;20196;-78
2023/04/26 06:13:41;;;;;;;7.28;1.70;;;23.00;99.90;;;;;;5073337;28;20196;-76
2023/04/26 06:16:12;;;;;;;8.32;1.45;;;22.90;99.90;;;;;;5063751;28;20201;-76
2023/04/26 06:18:43;;;;;;;9.00;1.50;;;22.90;99.90;;;;;;5068666;28;20207;-75
2023/04/26 06:21:14;;;;;;;7.00;1.35;;;23.00;99.90;;;;;;5064844;28;20220;-76
2023/04/26 06:23:45;;;;;;;8.48;1.45;;;23.10;99.90;;;;;;5070819;28;20198;-76
2023/04/26 06:26:17;;;;;;;6.18;1.15;;;23.10;99.90;;;;;;5063903;28;20197;-76
2023/04/26 06:28:50;;;;;;;5.60;1.20;;;23.10;99.90;;;;;;5051218;28;20200;-75
2023/04/26 06:31:21;;;;;;;5.22;1.08;;;23.10;99.90;;;;;;5061586;28;20196;-77
2023/04/26 06:33:52;;;;;;;5.78;1.20;;;23.20;99.90;;;;;;5069777;28;20262;-75
2023/04/26 06:36:23;;;;;;;3.03;0.90;;;23.30;99.90;;;;;;5070029;28;20206;-76
2023/04/26 06:38:54;;;;;;;4.10;1.00;;;23.30;99.90;;;;;;5071396;28;20206;-76
2023/04/26 06:41:25;;;;;;;4.25;1.17;;;23.30;99.90;;;;;;5061877;28;20235;-76
2023/04/26 06:43:58;;;;;;;4.38;1.17;;;23.30;99.90;;;;;;5051234;28;20670;-75
2023/04/26 06:46:29;;;;;;;3.92;1.30;;;23.20;99.90;;;;;;5057088;28;20199;-76
2023/04/26 06:49:01;;;;;;;6.00;1.30;;;23.10;99.90;;;;;;5081374;28;20191;-76
2023/04/26 06:51:32;;;;;;;4.35;1.10;;;23.00;99.90;;;;;;5072251;28;20227;-75
2023/04/26 06:54:03;;;;;;;4.88;1.20;;;22.90;99.90;;;;;;5068668;28;20200;-75
2023/04/26 06:56:34;;;;;;;5.15;1.20;;;22.70;99.90;;;;;;5070917;28;20203;-75
2023/04/26 06:59:07;;;;;;;5.22;1.27;;;22.70;99.90;;;;;;5052644;28;20210;-75
2023/04/26 07:01:39;;;;;;;5.78;1.33;;;22.50;99.90;;;;;;5069683;28;20227;-75
2023/04/26 07:04:10;;;;;;;5.70;1.33;;;22.50;99.90;;;;;;5071333;28;20200;-74
2023/04/26 07:06:41;;;;;;;6.38;1.17;;;22.30;99.90;;;;;;5079225;28;20273;-75
2023/04/26 07:09:12;;;;;;;5.47;1.23;;;22.20;99.90;;;;;;5068973;28;20566;-75
2023/04/26 07:11:43;;;;;;;7.47;1.48;;;22.20;99.90;;;;;;5070717;28;20589;-75
2023/04/26 07:14:17;;;;;;;4.85;1.33;;;22.10;99.90;;;;;;5069606;28;20202;-75
2023/04/26 07:16:48;;;;;;;7.35;1.30;;;22.10;99.90;;;;;;5061887;28;20255;-76
2023/04/26 07:19:20;;;;;;;3.63;1.30;;;22.00;99.90;;;;;;5050761;28;20197;-76
2023/04/26 07:21:51;;;;;;;4.68;1.15;;;21.90;99.90;;;;;;5068914;28;20272;-75
2023/04/26 07:24:22;;;;;;;6.70;1.50;;;21.90;99.90;;;;;;5069376;28;20203;-75
2023/04/26 07:26:53;;;;;;;7.13;1.20;;;21.80;99.90;;;;;;5052655;28;20678;-75
2023/04/26 07:29:26;;;;;;;5.18;1.10;;;21.80;99.90;;;;;;5067219;28;20253;-75
2023/04/26 07:31:58;;;;;;;4.75;1.17;;;21.70;99.90;;;;;;5068981;28;20567;-75
2023/04/26 07:34:31;;;;;;;4.80;1.38;;;21.70;99.90;;;;;;5070578;28;20248;-76
2023/04/26 07:37:02;;;;;;;6.20;1.40;;;21.60;99.90;;;;;;5070295;28;20203;-75
2023/04/26 07:39:33;;;;;;;7.47;1.33;;;21.60;99.90;;;;;;5071070;28;20215;-75
2023/04/26 07:42:04;;;;;;;5.45;1.20;;;21.60;99.90;;;;;;5069732;28;20228;-76
2023/04/26 07:44:37;;;;;;;6.18;1.30;;;21.60;99.90;;;;;;5066811;28;20199;-74
2023/04/26 07:47:13;;;;;;;4.47;1.20;;;21.50;99.90;;;;;;5063213;28;20204;-75
2023/04/26 07:49:44;;;;;;;4.05;1.10;;;21.50;99.90;;;;;;5066463;28;20955;-74
2023/04/26 07:52:15;;;;;;;5.05;1.10;;;21.50;99.90;;;;;;5067531;28;20691;-76
2023/04/26 07:54:48;;;;;;;5.43;1.33;;;21.50;99.90;;;;;;5066819;28;20242;-75
2023/04/26 07:57:19;;;;;;;4.82;1.30;;;21.40;99.90;;;;;;5070674;28;20603;-75
2023/04/26 07:59:52;;;;;;;5.07;1.30;;;21.40;99.90;;;;;;5070361;28;20220;-75
2023/04/26 08:02:23;;;;;;;5.68;1.30;;;21.40;99.90;;;;;;5070467;28;20198;-74
2023/04/26 08:04:56;;;;;;;6.70;1.45;;;21.30;99.90;;;;;;5070373;28;20204;-76
2023/04/26 08:07:27;;;;;;;6.75;1.45;;;21.40;99.90;;;;;;5070670;28;20200;-75
2023/04/26 08:09:58;;;;;;;5.95;1.20;;;21.30;99.90;;;;;;5069035;28;20242;-75
2023/04/26 08:12:29;;;;;;;3.70;1.10;;;21.30;99.90;;;;;;5069774;28;20195;-75
2023/04/26 08:15:03;;;;;;;3.35;1.30;;;21.30;99.90;;;;;;5067765;28;20317;-75
2023/04/26 08:17:34;;;;;;;5.57;1.33;;;21.30;99.90;;;;;;5069203;28;20192;-74
2023/04/26 08:20:08;;;;;;;3.47;1.30;;;21.30;99.90;;;;;;5070075;28;20200;-74
2023/04/26 08:22:39;;;;;;;3.75;1.15;;;21.30;99.90;;;;;;5070407;28;20581;-75
2023/04/26 08:25:10;;;;;;;8.55;1.45;;;21.30;99.90;;;;;;5070394;28;20573;-76
2023/04/26 08:27:43;;;;;;;5.63;1.50;;;21.30;99.90;;;;;;5070534;28;20196;-76
2023/04/26 08:30:16;;;;;;;5.50;1.38;;;21.30;99.90;;;;;;5076422;28;20201;-74
2023/04/26 08:32:48;;;;;;;5.25;1.00;;;21.30;99.90;;;;;;5073064;28;20565;-75
2023/04/26 08:35:19;;;;;;;8.63;1.25;;;21.30;99.90;;;;;;5073293;28;20237;-74
2023/04/26 08:37:50;;;;;;;5.63;1.42;;;21.30;99.90;;;;;;5072034;28;20565;-76
2023/04/26 08:40:26;;;;;;;4.88;1.20;;;21.30;99.90;;;;;;5073655;28;20322;-75
2023/04/26 08:42:57;;;;;;;3.70;1.10;;;21.30;99.90;;;;;;5073694;28;20195;-75
2023/04/26 08:45:32;;;;;;;6.53;1.63;;;21.40;99.90;;;;;;5073256;28;20199;-76
2023/04/26 08:48:10;;;;;;;6.22;2.00;;;21.30;99.90;;;;;;5072718;28;20200;-74
2023/04/26 08:50:42;;;;;;;4.35;1.42;;;21.30;99.90;;;;;;5073720;28;20705;-75
2023/04/26 08:53:17;;;;;;;7.43;1.27;;;21.40;99.90;;;;;;5073362;28;20344;-76
2023/04/26 08:55:51;;;;;;;4.95;1.33;;;21.40;99.90;;;;;;5073418;28;20257;-75
2023/04/26 08:58:23;;;;;;;4.57;1.35;;;21.40;99.90;;;;;;5073175;28;20207;-75
2023/04/26 09:00:57;;;;;;;3.55;1.00;;;21.40;99.90;;;;;;5072780;28;20235;-76
2023/04/26 09:03:28;;;;;;;7.82;1.48;;;21.40;99.90;;;;;;5072760;28;20204;-75
2023/04/26 09:05:59;;;;;;;5.88;1.88;;;21.40;99.90;;;;;;5053535;28;20208;-76
2023/04/26 09:08:30;;;;;;;5.45;1.27;;;21.50;99.90;;;;;;5053527;28;20203;-75
2023/04/26 09:11:01;;;;;;;5.70;1.17;;;21.50;99.90;;;;;;5053385;28;20216;-76
2023/04/26 09:13:32;;;;;;;6.30;1.27;;;21.50;99.90;;;;;;5054149;28;20215;-75
2023/04/26 09:16:06;;;;;;;4.88;1.05;;;21.50;99.90;;;;;;5057041;28;20705;-75
2023/04/26 09:18:37;;;;;;;5.35;1.17;;;21.50;99.90;;;;;;5072069;28;20208;-76
2023/04/26 09:21:09;;;;;;;7.43;1.30;;;21.50;99.90;;;;;;5077823;28;20704;-76
2023/04/26 09:24:03;;;;;;;7.07;1.30;;;21.50;99.90;;;;;;5093500;28;20192;-76
2023/04/26 09:26:34;;;;;;;6.35;1.10;;;21.50;99.90;;;;;;5093005;28;20545;-75
2023/04/26 09:29:19;;;;;;;5.40;1.30;;;21.50;99.90;;;;;;5093249;28;20203;-76
2023/04/26 09:31:52;;;;;;;4.00;1.20;;;21.40;99.90;;;;;;5084618;28;20560;-75
2023/04/26 09:34:24;;;;;;;4.68;1.30;;;21.40;99.90;;;;;;5072531;28;20200;-75
2023/04/26 09:36:56;;;;;;;7.72;1.15;;;21.40;99.90;;;;;;5072329;28;20203;-75
2023/04/26 09:39:36;;;;;;;7.82;1.63;;;21.40;99.90;;;;;;5080766;28;20196;-75
2023/04/26 09:42:08;;;;;;;6.22;1.40;;;21.30;99.90;;;;;;5069811;28;20238;-76
2023/04/26 09:44:39;;;;;;;6.15;1.25;;;21.40;99.90;;;;;;5067329;28;20671;-76
2023/04/26 09:47:13;;;;;;;4.57;1.20;;;21.30;99.90;;;;;;5070834;28;20282;-75
2023/04/26 09:49:51;;;;;;;3.53;1.20;;;21.40;99.90;;;;;;5064815;28;20195;-75
2023/04/26 09:52:22;;;;;;;4.53;1.08;;;21.30;99.90;;;;;;5052017;28;20196;-75
2023/04/26 09:54:54;;;;;;;5.68;1.30;;;21.40;99.90;;;;;;5072312;28;20215;-74
2023/04/26 09:57:26;;;;;;;10.98;1.42;;;21.40;99.90;;;;;;5071455;28;20647;-75
2023/04/26 09:59:59;;;;;;;6.15;1.30;;;21.40;99.90;;;;;;5071202;28;20234;-75
2023/04/26 10:02:33;;;;;;;5.75;1.50;;;21.40;99.90;;;;;;5069767;28;20227;-75
2023/04/26 10:05:05;;;;;;;5.60;1.58;;;21.40;99.90;;;;;;5071518;28;21051;-75
2023/04/26 10:07:36;;;;;;;5.50;1.38;;;21.40;99.90;;;;;;5069314;28;20257;-75
2023/04/26 10:10:08;;;;;;;7.65;1.20;;;21.40;99.90;;;;;;5071791;28;20199;-75
2023/04/26 10:12:40;;;;;;;3.55;1.20;;;21.40;99.90;;;;;;5071237;28;20286;-75
2023/04/26 10:15:13;;;;;;;5.68;1.08;;;21.40;99.90;;;;;;5070740;28;20196;-75
2023/04/26 10:17:47;;;;;;;5.55;1.23;;;21.40;99.90;;;;;;5070929;28;20739;-75
2023/04/26 10:20:20;;;;;;;5.70;1.65;;;21.30;99.90;;;;;;5071315;28;20663;-75
2023/04/26 10:23:00;;;;;;;6.75;1.55;;;21.30;99.90;;;;;;5071423;28;20239;-75
2023/04/26 10:25:41;;;;;;;8.95;1.50;;;21.30;99.90;;;;;;5071463;28;20561;-74
2023/04/26 10:28:12;;;;;;;5.03;1.17;;;21.30;99.90;;;;;;5071696;28;20207;-75
2023/04/26 10:31:00;;;;;;;5.53;1.10;;;21.30;99.90;;;;;;5075454;28;20193;-76
2023/04/26 10:33:33;;;;;;;5.03;1.00;;;21.40;99.90;;;;;;5068796;28;20191;-75
2023/04/26 10:36:12;;;;;;;7.28;1.30;;;21.40;99.90;;;;;;5071154;28;20188;-75
2023/04/26 10:38:44;;;;;;;3.97;0.90;;;21.30;99.90;;;;;;5071480;28;20673;-75
2023/04/26 10:41:37;;;;;;;5.15;1.38;;;21.30;99.90;;;;;;5070680;28;20559;-75
2023/04/26 10:44:46;;;;;;;7.13;1.08;;;21.40;99.90;;;;;;5067376;28;20219;-76
2023/04/26 10:47:31;;;;;;;6.25;1.48;;;21.40;99.90;;;;;;5061492;28;20203;-74
2023/04/26 10:50:11;;;;;;;4.78;1.20;;;21.40;99.90;;;;;;5070269;28;20192;-75
2023/04/26 10:53:08;;;;;;;7.30;1.33;;;21.40;99.90;;;;;;5066643;28;20204;-75
2023/04/26 10:55:45;;;;;;;7.45;1.30;;;21.40;99.90;;;;;;5069171;28;20199;-74
2023/04/26 10:58:36;;;;;;;5.43;1.17;;;21.30;99.90;;;;;;5051064;28;20196;-74
2023/04/26 11:01:10;;;;;;;5.43;1.25;;;21.30;99.90;;;;;;5061195;28;20247;-74
2023/04/26 11:03:42;;;;;;;7.30;1.40;;;21.30;99.90;;;;;;5070401;28;20287;-74
2023/04/26 11:06:17;;;;;;;8.90;1.58;;;21.30;99.90;;;;;;5071384;28;20196;-74
2023/04/26 11:08:49;;;;;;;5.75;1.30;;;21.30;99.90;;;;;;5068823;28;20654;-74
2023/04/26 11:11:21;;;;;;;4.25;1.23;;;21.30;99.90;;;;;;5067245;28;20200;-75
2023/04/26 11:13:52;;;;;;;4.03;1.10;;;21.20;99.90;;;;;;5069834;28;20288;-75
2023/04/26 11:16:25;;;;;;;7.80;1.27;;;21.20;99.90;;;;;;5065006;28;20262;-74
2023/04/26 11:18:58;;;;;;;7.25;1.08;;;21.20;99.90;;;;;;5050541;28;20595;-75
2023/04/26 11:21:31;;;;;;;7.43;1.45;;;21.20;99.90;;;;;;5067117;28;20223;-74
2023/04/26 11:24:02;;;;;;;8.70;1.45;;;21.20;99.90;;;;;;5069635;28;20200;-74
2023/04/26 11:26:36;;;;;;;7.05;1.33;;;21.20;99.90;;;;;;5069291;28;20203;-73
2023/04/26 11:29:12;;;;;;;5.70;1.50;;;21.20;99.90;;;;;;5066617;28;20250;-75
2023/04/26 11:31:43;;;;;;;4.10;1.10;;;21.20;99.90;;;;;;5066170;28;20196;-75
2023/04/26 11:34:15;;;;;;;4.90;0.90;;;21.20;99.90;;;;;;5068782;28;20196;-74
2023/04/26 11:36:48;;;;;;;3.75;0.85;;;21.20;99.90;;;;;;5071113;28;20203;-75
2023/04/26 11:39:21;;;;;;;4.18;1.08;;;21.20;99.90;;;;;;5070977;28;20677;-74
2023/04/26 11:41:52;;;;;;;6.82;1.50;;;21.20;99.90;;;;;;5069095;28;20216;-75
2023/04/26 11:44:23;;;;;;;4.72;1.20;;;21.20;99.90;;;;;;5069515;28;20195;-75
2023/04/26 11:46:55;;;;;;;5.07;1.20;;;21.20;99.90;;;;;;5066339;28;20192;-74
2023/04/26 11:49:27;;;;;;;4.90;1.15;;;21.20;99.90;;;;;;5059649;28;20220;-75
2023/04/26 11:52:00;;;;;;;5.68;1.30;;;21.20;99.90;;;;;;5070966;28;20720;-74
2023/04/26 11:54:32;;;;;;;2.40;0.77;;;21.20;99.90;;;;;;5070962;28;20543;-75
2023/04/26 11:57:03;;;;;;;4.00;1.00;;;21.10;99.90;;;;;;5067930;28;20542;-74
2023/04/26 11:59:34;;;;;;;3.42;0.90;;;21.10;99.90;;;;;;5069582;28;20218;-74
2023/04/26 12:02:09;;;;;;;5.93;1.20;;;21.10;99.90;;;;;;5069179;28;20734;-74
2023/04/26 12:04:43;;;;;;;5.40;1.05;;;21.00;99.90;;;;;;5070339;28;20214;-75
2023/04/26 12:07:21;;;;;;;3.88;1.10;;;21.00;99.90;;;;;;5070730;28;20250;-75
2023/04/26 12:09:52;;;;;;;3.33;0.80;;;21.00;99.90;;;;;;5061666;28;20226;-76
2023/04/26 12:12:26;;;;;;;6.30;1.13;;;21.00;99.90;;;;;;5089920;28;20207;-75
2023/04/26 12:14:57;;;;;;;4.47;0.90;;;20.90;99.90;;;;;;5086051;28;20200;-76
2023/04/26 12:17:31;;;;;;;5.95;1.02;;;20.90;99.90;;;;;;5070988;28;20199;-75
2023/04/26 12:20:10;;;;;;;4.78;1.20;;;20.80;99.90;;;;;;5073393;28;20192;-74
2023/04/26 12:22:43;;;;;;;4.47;0.90;;;20.80;99.90;;;;;;5070911;28;21994;-73
2023/04/26 12:25:14;;;;;;;5.80;1.10;;;20.80;99.90;;;;;;5090079;28;20218;-74
2023/04/26 12:27:45;;;;;;;4.03;1.10;;;20.80;99.90;;;;;;5075573;28;20218;-74
2023/04/26 12:30:17;;;;;;;6.30;0.98;;;20.70;99.90;;;;;;5073243;28;20192;-74
2023/04/26 12:32:48;;;;;;;7.50;1.17;;;20.70;99.90;;;;;;5068926;28;20196;-74
2023/04/26 12:35:19;;;;;;;5.35;1.10;;;20.60;99.90;;;;;;5073122;28;20274;-74
2023/04/26 12:37:53;;;;;;;5.05;0.98;;;20.70;99.90;;;;;;5074013;28;20227;-74
2023/04/26 12:40:24;;;;;;;5.70;1.30;;;20.60;99.90;;;;;;5074219;28;20637;-74
2023/04/26 12:42:55;;;;;;;6.38;1.15;;;20.70;99.90;;;;;;5074050;28;20227;-74
2023/04/26 12:45:28;;;;;;;3.58;0.90;;;20.60;99.90;;;;;;5081938;28;20256;-74
2023/04/26 12:47:59;;;;;;;3.67;0.80;;;20.60;99.90;;;;;;5076828;28;20223;-74
2023/04/26 12:50:30;;;;;;;4.28;0.93;;;20.60;99.90;;;;;;5073243;28;20195;-75
2023/04/26 12:53:03;;;;;;;4.07;1.10;;;20.60;99.90;;;;;;5057706;28;20204;-74
2023/04/26 12:55:34;;;;;;;6.85;1.05;;;20.70;99.90;;;;;;5064493;28;20595;-75
2023/04/26 12:58:06;;;;;;;3.67;0.80;;;20.70;99.90;;;;;;5074450;28;20214;-74
2023/04/26 13:00:37;;;;;;;5.22;0.98;;;20.70;99.90;;;;;;5062732;28;20232;-74
2023/04/26 13:03:08;;;;;;;5.72;1.20;;;20.60;99.90;;;;;;5086857;28;20230;-74
2023/04/26 13:05:42;;;;;;;4.00;0.98;;;20.60;99.90;;;;;;5093357;28;20206;-74
2023/04/26 13:08:15;;;;;;;6.18;1.00;;;20.60;99.90;;;;;;5093535;28;20598;-75
2023/04/26 13:10:46;;;;;;;3.55;1.10;;;20.60;99.90;;;;;;5093448;28;20689;-75
2023/04/26 13:13:19;;;;;;;5.88;1.27;;;20.60;99.90;;;;;;5078768;28;20208;-74